Weather observations for the past three days for
Rapid City, Rapid City Regional Airport
| Date | Time (mdt) | Wind (mph) | Vis. (mi.) | Weather | Sky Cond. | Temperature (ºF) | Relative Humidity | Wind Chill (°F) | Heat Index (°F) | Pressure | Precipitation (in) | ||||||
|---|---|---|---|---|---|---|---|---|---|---|---|---|---|---|---|---|---|
| Air | Dwpt | 6 hour | altimeter (in) | sea level (mb) | 1 hr | 3 hr | 6 hr | ||||||||||
| Max. | Min. | ||||||||||||||||
| 07 | 18:52 | SW 9 | 10.00 | Fair | CLR | 57.9 | 41 | 53% | 29.81 | 1009.5 | |||||||
| 07 | 17:52 | W 13 | 10.00 | Mostly Cloudy | BKN110 | 59 | 39.9 | 64.9 | 57.9 | 49% | 29.82 | 1010.4 | |||||
| 07 | 16:52 | SE 6 | 10.00 | Mostly Cloudy | BKN100 | 62.1 | 26.1 | 25% | 29.81 | 1009.8 | |||||||
| 07 | 15:52 | E 9 | 10.00 | Fair | CLR | 63 | 25 | 24% | 29.82 | 1010.2 | |||||||
| 07 | 14:52 | SE 6 | 10.00 | Fair | CLR | 63 | 21.9 | 21% | 29.82 | 1010.4 | |||||||
| 07 | 13:52 | NE 6 | 10.00 | Mostly Cloudy | BKN090 | 64 | 21.9 | 20% | 29.84 | 1010.8 | |||||||
| 07 | 12:52 | NE 8 | 10.00 | Partly Cloudy | SCT090 | 60.1 | 19 | 20% | 29.85 | 1011.1 | |||||||
| 07 | 11:52 | N 8 | 10.00 | Overcast | FEW080 SCT100 OVC120 | 57 | 18 | 60.1 | 33.1 | 22% | 29.86 | 1012.1 | |||||
| 07 | 10:52 | NE 10 | 10.00 | Overcast | OVC095 | 57 | 19 | 23% | 29.86 | 1011.6 | |||||||
| 07 | 09:52 | N 12 | 10.00 | Fair | CLR | 57.9 | 18 | 21% | 29.86 | 1011.6 | |||||||
| 07 | 08:52 | N 8 | 10.00 | Fair | CLR | 55 | 19 | 24% | 29.87 | 1011.7 | |||||||
| 07 | 07:52 | N 10 | 10.00 | Fair | CLR | 52 | 19.9 | 28% | 29.86 | 1011.4 | |||||||
| 07 | 06:52 | SW 6 | 10.00 | Fair | CLR | 44.1 | 21 | 40% | 41 | 29.84 | 1011.0 | ||||||
| 07 | 05:52 | NW 6 | 10.00 | Fair | CLR | 33.1 | 19 | 39.9 | 27 | 56% | 28 | 29.83 | 1011.2 | ||||
| 07 | 04:52 | NW 7 | 10.00 | Fair | CLR | 33.1 | 17.1 | 52% | 28 | 29.81 | 1010.5 | ||||||
| 07 | 03:52 | NW 9 | 10.00 | Fair | CLR | 30 | 18 | 61% | 22 | 29.81 | 1010.5 | ||||||
| 07 | 02:52 | N 6 | 10.00 | Fair | CLR | 28 | 18 | 66% | 22 | 29.8 | 1010.4 | ||||||
| 07 | 01:52 | Calm | 10.00 | Fair | CLR | 33.1 | 17.1 | 52% | 29.81 | 1010.7 | |||||||
| 07 | 00:52 | S 5 | 10.00 | Fair | CLR | 39.9 | 17.1 | 40% | 37 | 29.82 | 1010.8 | ||||||
| 06 | 23:52 | Calm | 10.00 | Fair | CLR | 33.1 | 18 | 54 | 30 | 54% | 29.84 | 1011.9 | |||||
| 06 | 22:52 | S 6 | 10.00 | Fair | CLR | 41 | 18 | 39% | 38 | 29.85 | 1011.7 | ||||||
| 06 | 21:52 | Calm | 10.00 | A Few Clouds | FEW120 | 37 | 18 | 46% | 29.87 | 1012.8 | |||||||
| 06 | 20:52 | Calm | 10.00 | Fair | CLR | 45 | 17.1 | 33% | 29.88 | 1012.9 | |||||||
| 06 | 19:52 | E 5 | 10.00 | Fair | CLR | 46 | 19 | 34% | 44 | 29.89 | 1013.2 | ||||||
| 06 | 18:52 | E 6 | 10.00 | Fair | CLR | 52 | 17.1 | 25% | 29.88 | 1013.1 | |||||||
| 06 | 17:52 | Calm | 10.00 | Fair | CLR | 53.1 | 16 | 55 | 48 | 23% | 29.91 | 1014.6 | |||||
| 06 | 16:52 | Vrbl 6 | 10.00 | Fair | CLR | 54 | 15.1 | 21% | 29.92 | 1015.0 | |||||||
| 06 | 15:52 | S 7 | 10.00 | Fair | CLR | 55 | 16 | 21% | 29.95 | 1015.9 | |||||||
| 06 | 14:52 | W 7 | 10.00 | A Few Clouds | FEW080 | 53.1 | 15.1 | 22% | 29.98 | 1016.9 | |||||||
| 06 | 13:52 | Vrbl 5 | 10.00 | Fair | CLR | 53.1 | 16 | 23% | 30.01 | 1018.0 | |||||||
| 06 | 12:52 | W 5 | 10.00 | Fair | CLR | 50 | 15.1 | 25% | 49 | 30.02 | 1018.6 | ||||||
| 06 | 11:52 | NW 6 | 10.00 | Fair | CLR | 48.9 | 14 | 48.9 | 24.1 | 25% | 47 | 30.05 | 1019.5 | ||||
| 06 | 10:52 | NW 12 G 18 | 10.00 | Fair | CLR | 46.9 | 15.1 | 28% | 42 | 30.08 | 1020.1 | ||||||
| 06 | 09:52 | NW 10 G 21 | 10.00 | Fair | CLR | 45 | 14 | 29% | 40 | 30.09 | 1020.8 | ||||||
| 06 | 08:52 | N 14 G 22 | 10.00 | Fair | CLR | 43 | 14 | 31% | 37 | 30.09 | 1020.8 | ||||||
| 06 | 07:52 | NW 12 | 10.00 | Fair | CLR | 39.9 | 16 | 38% | 34 | 30.1 | 1021.2 | ||||||
| 06 | 06:52 | W 8 | 10.00 | Fair | CLR | 34 | 19 | 54% | 28 | 30.1 | 1021.2 | ||||||
| 06 | 05:52 | NW 8 | 10.00 | Fair | CLR | 24.1 | 16 | 30.9 | 23 | 71% | 16 | 30.08 | 1021.4 | ||||
| 06 | 04:52 | NW 8 | 10.00 | Fair | CLR | 24.1 | 16 | 71% | 16 | 30.07 | 1020.8 | ||||||
| 06 | 03:52 | W 6 | 10.00 | Fair | CLR | 24.1 | 15.1 | 68% | 18 | 30.07 | 1020.8 | ||||||
| 06 | 02:52 | NW 7 | 10.00 | Fair | CLR | 26.1 | 16 | 66% | 19 | 30.07 | 1020.4 | ||||||
| 06 | 01:52 | NW 7 | 10.00 | Fair | CLR | 25 | 16 | 69% | 18 | 30.07 | 1020.2 | ||||||
| 06 | 00:52 | NW 9 | 10.00 | Fair | CLR | 28 | 18 | 66% | 20 | 30.06 | 1020.0 | ||||||
| 05 | 23:52 | N 10 | 10.00 | Fair | CLR | 30.9 | 18 | 46 | 30.9 | 59% | 23 | 30.06 | 1019.8 | ||||
| 05 | 22:52 | N 13 | 10.00 | Fair | CLR | 34 | 18 | 52% | 26 | 30.05 | 1019.2 | ||||||
| 05 | 21:52 | N 10 | 10.00 | Fair | CLR | 32 | 18 | 56% | 24 | 30.05 | 1019.6 | ||||||
| 05 | 20:52 | N 10 | 10.00 | Partly Cloudy | SCT060 | 37 | 18 | 46% | 30 | 30.03 | 1018.7 | ||||||
| 05 | 19:52 | N 13 | 10.00 | Fair | CLR | 39.9 | 17.1 | 40% | 33 | 29.99 | 1017.4 | ||||||
| 05 | 18:52 | NW 18 G 26 | 10.00 | A Few Clouds | FEW095 | 44.1 | 21.9 | 41% | 37 | 29.97 | 1016.7 | ||||||
| 05 | 17:52 | N 23 G 33 | 10.00 | Overcast and Breezy | OVC100 | 44.1 | 21 | 51.1 | 44.1 | 40% | 36 | 29.96 | 1016.6 | ||||
| 05 | 16:52 | N 30 G 37 | 10.00 | Mostly Cloudy and Windy | FEW055 BKN090 | 46.9 | 23 | 39% | 38 | 29.95 | 1015.9 | ||||||
| 05 | 15:52 | N 21 G 38 | 10.00 | Mostly Cloudy and Breezy | BKN090 | 46 | 19.9 | 35% | 39 | 29.93 | 1015.0 | ||||||
| 05 | 14:52 | N 31 G 39 | 10.00 | Fair and Windy | CLR | 50 | 19.9 | 30% | 42 | 29.92 | 1014.6 | ||||||
| 05 | 13:52 | N 23 G 38 | 10.00 | Fair and Breezy | CLR | 51.1 | 19.9 | 29% | 29.94 | 1015.0 | |||||||
| 05 | 12:52 | N 22 G 36 | 10.00 | A Few Clouds and Breezy | FEW055 | 50 | 19.9 | 30% | 44 | 29.95 | 1015.0 | ||||||
| 05 | 11:52 | NW 21 G 35 | 10.00 | Overcast and Breezy | OVC065 | 46.9 | 19 | 48.9 | 28.9 | 33% | 40 | 29.97 | 1015.9 | ||||
| 05 | 10:52 | N 20 G 29 | 10.00 | Mostly Cloudy | BKN060 | 45 | 17.1 | 33% | 38 | 29.98 | 1016.1 | ||||||
| 05 | 09:52 | N 23 G 30 | 10.00 | A Few Clouds and Breezy | FEW050 | 44.1 | 18 | 35% | 36 | 29.98 | 1016.3 | ||||||
| 05 | 08:52 | N 21 G 30 | 10.00 | Partly Cloudy and Breezy | FEW036 SCT048 | 42.1 | 23 | 47% | 34 | 29.99 | 1016.6 | ||||||
| 05 | 07:52 | N 20 | 10.00 | Fair | CLR | 39 | 27 | 62% | 30 | 29.99 | 1016.6 | ||||||
| 05 | 06:52 | N 9 | 10.00 | Partly Cloudy | SCT048 | 36 | 28 | 73% | 30 | 29.97 | 1016.0 | ||||||
| 05 | 05:52 | N 8 | 10.00 | Fair | CLR | 28.9 | 25 | 42.1 | 28 | 85% | 22 | 29.94 | 1015.5 | ||||
| 05 | 04:52 | N 10 | 10.00 | Fair | CLR | 30 | 27 | 88% | 22 | 29.94 | 1015.2 | ||||||
| 05 | 03:52 | NW 9 | 10.00 | Fair | CLR | 35.1 | 28.9 | 78% | 29 | 29.93 | 1014.4 | ||||||
| 05 | 02:52 | N 12 | 10.00 | A Few Clouds | FEW050 | 34 | 28 | 79% | 26 | 29.93 | 1014.7 | ||||||
| 05 | 01:52 | N 9 | 10.00 | Overcast | FEW080 OVC100 | 37 | 30.9 | 79% | 31 | 29.93 | 1014.2 | ||||||
| 05 | 00:52 | N 7 | 10.00 | Overcast | BKN045 BKN055 OVC100 | 41 | 35.1 | 79% | 37 | 29.93 | 1014.0 | ||||||
| 04 | 23:52 | NW 10 | 10.00 | Light Rain | BKN041 OVC065 | 42.1 | 37 | 52 | 42.1 | 82% | 37 | 29.91 | 1013.3 | 0.01 | 0.01 | ||
| 04 | 22:52 | N 9 | 10.00 | Overcast | SCT050 BKN060 OVC080 | 46 | 30 | 54% | 42 | 29.9 | 1012.6 | ||||||
| 04 | 21:52 | NW 8 | 10.00 | Partly Cloudy | SCT075 | 45 | 28.9 | 54% | 41 | 29.89 | 1012.6 | ||||||
| 04 | 20:52 | NW 8 | 10.00 | A Few Clouds | FEW080 | 46 | 28 | 50% | 42 | 29.88 | 1012.1 | ||||||
| 04 | 19:52 | NW 14 | 10.00 | A Few Clouds | FEW070 | 48.9 | 27 | 43% | 44 | 29.86 | 1011.3 | ||||||
| Date | Time (mdt) | Wind (mph) | Vis. (mi.) | Weather | Sky Cond. | Air | Dwpt | Max. | Min. | Relative Humidity | Wind Chill (°F) | Heat Index (°F) | altimeter (in) | sea level (mb) | 1 hr | 3 hr | 6 hr |
| 6 hour | |||||||||||||||||
| Temperature (ºF) | Pressure | Precipitation (in) | |||||||||||||||